Time;durP1;ratioP1;P1;durP2;ratioP2;P2;SDS_P1;SDS_P2;PMS_P1;PMS_P2;Temp;Humidity;BMP_temperature;BMP_pressure;BME280_temperature;BME280_humidity;BME280_pressure;Samples;Min_cycle;Max_cycle;Signal;HPM_P1;HPM_P2
2022/01/25 00:15:19;;;;;;;45.58;28.00;;;4.90;99.90;;;;;;5085568;28;20040;-74
2022/01/25 00:26:15;;;;;;;45.60;26.45;;;5.00;99.90;;;;;;5093348;28;20044;-74
2022/01/25 00:28:51;;;;;;;;;;;5.00;99.90;;;;;;5076549;28;20088;-74
2022/01/25 00:31:17;;;;;;;46.63;27.38;;;5.10;99.90;;;;;;5077455;28;20072;-74
2022/01/25 00:33:51;;;;;;;47.65;28.40;;;4.90;99.90;;;;;;5092995;28;20047;-74
2022/01/25 00:36:20;;;;;;;47.80;27.20;;;4.90;99.90;;;;;;5077534;28;20036;-74
2022/01/25 00:38:46;;;;;;;49.60;29.05;;;4.90;99.90;;;;;;5092875;28;20040;-74
2022/01/25 00:41:12;;;;;;;49.00;27.88;;;5.00;99.90;;;;;;5093132;28;20118;-74
2022/01/25 00:43:38;;;;;;;47.33;26.17;;;5.00;99.90;;;;;;5074127;28;20445;-74
2022/01/25 00:46:08;;;;;;;47.53;28.25;;;5.00;99.90;;;;;;5093781;28;20032;-74
2022/01/25 00:53:59;;;;;;;48.25;28.23;;;5.00;99.90;;;;;;5092723;28;20330;-74
2022/01/25 00:56:31;;;;;;;41.65;24.30;;;5.00;99.90;;;;;;5093991;28;20069;-74
2022/01/25 00:58:59;;;;;;;48.10;27.20;;;5.00;99.90;;;;;;5092405;28;20395;-74
2022/01/25 01:01:25;;;;;;;46.85;26.50;;;5.00;99.90;;;;;;5076904;28;20373;-74
2022/01/25 01:03:51;;;;;;;46.92;27.38;;;5.00;99.90;;;;;;5074777;28;20036;-74
2022/01/25 01:06:17;;;;;;;45.53;26.83;;;5.00;99.90;;;;;;5077285;28;20096;-74
2022/01/25 01:08:43;;;;;;;48.58;27.27;;;5.00;99.90;;;;;;5075648;28;20044;-74
2022/01/25 01:11:14;;;;;;;43.33;26.27;;;4.90;99.90;;;;;;5093276;28;20037;-74
2022/01/25 01:29:52;;;;;;;48.25;28.05;;;4.90;99.90;;;;;;5092321;28;20047;-74
2022/01/25 01:38:24;;;;;;;50.83;28.40;;;4.80;99.90;;;;;;5078525;28;20040;-74
2022/01/25 01:41:07;;;;;;;52.20;30.58;;;4.80;99.90;;;;;;5093146;28;20548;-74
2022/01/25 01:43:36;;;;;;;48.03;28.17;;;4.90;99.90;;;;;;5092170;28;20052;-74
2022/01/25 01:51:17;;;;;;;52.90;30.60;;;4.80;99.90;;;;;;5092069;28;20044;-74
2022/01/25 01:53:44;;;;;;;51.47;30.80;;;4.70;99.90;;;;;;5088016;28;20048;-74
2022/01/25 01:56:10;;;;;;;50.63;30.48;;;4.80;99.90;;;;;;5074700;28;20035;-74
2022/01/25 01:58:37;;;;;;;51.75;30.58;;;4.80;99.90;;;;;;5091834;28;20051;-74
2022/01/25 02:01:08;;;;;;;50.85;29.73;;;4.70;99.90;;;;;;5073870;28;20427;-74
2022/01/25 02:03:34;;;;;;;50.80;30.33;;;4.70;99.90;;;;;;5089998;28;20044;-74
2022/01/25 02:05:59;;;;;;;55.70;32.35;;;4.80;99.90;;;;;;5076023;28;20052;-74
2022/01/25 02:08:25;;;;;;;54.90;31.75;;;4.80;99.90;;;;;;5073366;28;20489;-74
2022/01/25 02:10:50;;;;;;;50.72;29.52;;;4.80;99.90;;;;;;5074553;28;20032;-74
2022/01/25 02:13:16;;;;;;;56.72;31.73;;;4.90;99.90;;;;;;5091343;28;20044;-74
2022/01/25 02:15:45;;;;;;;53.00;30.83;;;4.90;99.90;;;;;;5091140;28;20032;-74
2022/01/25 02:23:42;;;;;;;54.10;30.92;;;4.90;99.90;;;;;;5071997;28;20500;-74
2022/01/25 02:26:08;;;;;;;56.03;32.92;;;4.90;99.90;;;;;;5071750;28;20074;-74
2022/01/25 02:28:37;;;;;;;50.80;30.50;;;4.80;99.90;;;;;;5074050;28;21443;-74
2022/01/25 02:31:04;;;;;;;50.15;31.15;;;4.90;99.90;;;;;;5091748;28;20508;-74
2022/01/25 02:33:29;;;;;;;54.63;31.80;;;4.90;99.90;;;;;;5091226;28;20036;-74
2022/01/25 02:35:57;;;;;;;53.75;31.58;;;4.70;99.90;;;;;;5075400;28;20131;-74
2022/01/25 02:38:28;;;;;;;53.42;31.90;;;4.60;99.90;;;;;;5090116;28;20032;-74
2022/01/25 02:40:55;;;;;;;52.30;31.27;;;4.70;99.90;;;;;;5088258;28;20040;-74
2022/01/25 02:43:22;;;;;;;55.13;31.88;;;4.80;99.90;;;;;;5071785;28;20036;-74
2022/01/25 02:46:06;;;;;;;56.72;32.22;;;4.80;99.90;;;;;;5091124;28;20044;-74
2022/01/25 02:48:32;;;;;;;53.25;31.25;;;4.70;99.90;;;;;;5073062;28;20165;-74
2022/01/25 02:51:00;;;;;;;54.17;32.20;;;4.70;99.90;;;;;;5054396;28;20139;-74
2022/01/25 02:53:26;;;;;;;55.97;33.30;;;4.60;99.90;;;;;;5088969;28;20076;-74
2022/01/25 02:55:52;;;;;;;53.38;30.38;;;4.50;99.90;;;;;;5070803;28;20036;-74
2022/01/25 02:58:17;;;;;;;55.35;31.83;;;4.40;99.90;;;;;;5070490;28;20400;-74
2022/01/25 03:00:43;;;;;;;54.03;31.95;;;4.50;99.90;;;;;;5074868;28;20040;-74
2022/01/25 03:03:09;;;;;;;54.20;31.50;;;4.60;99.90;;;;;;5073682;28;20036;-74
2022/01/25 03:05:34;;;;;;;54.53;31.88;;;4.60;99.90;;;;;;5075101;28;20052;-74
2022/01/25 03:08:00;;;;;;;55.42;31.00;;;4.50;99.90;;;;;;5074253;28;20036;-74
2022/01/25 03:10:42;;;;;;;55.88;32.65;;;4.50;99.90;;;;;;5089721;28;20044;-74
2022/01/25 03:13:13;;;;;;;50.45;30.30;;;4.40;99.90;;;;;;5091125;28;20121;-74
2022/01/25 03:16:01;;;;;;;55.15;31.33;;;4.40;99.90;;;;;;5071943;28;20048;-74
2022/01/25 03:21:18;;;;;;;55.58;32.25;;;4.50;99.90;;;;;;5093473;28;20137;-74
2022/01/25 03:23:45;;;;;;;53.78;31.83;;;4.40;99.90;;;;;;5075671;28;20040;-74
2022/01/25 03:26:11;;;;;;;51.13;31.13;;;4.50;99.90;;;;;;5078695;28;20444;-74
2022/01/25 03:28:36;;;;;;;53.42;30.25;;;4.50;99.90;;;;;;5078328;28;20062;-74
2022/01/25 03:31:02;;;;;;;52.25;31.42;;;4.70;99.90;;;;;;5078133;28;20093;-74
2022/01/25 03:33:28;;;;;;;51.53;29.92;;;4.70;99.90;;;;;;5077685;28;20039;-74
2022/01/25 03:35:53;;;;;;;52.75;31.23;;;4.70;99.90;;;;;;5077720;28;20089;-74
2022/01/25 03:38:19;;;;;;;52.67;30.08;;;4.80;99.90;;;;;;5093852;28;20114;-74
2022/01/25 03:40:45;;;;;;;55.92;31.55;;;4.70;99.90;;;;;;5092831;28;20039;-74
2022/01/25 03:43:14;;;;;;;50.60;29.60;;;4.70;99.90;;;;;;5095286;28;20388;-74
2022/01/25 03:45:42;;;;;;;53.38;31.60;;;4.80;99.90;;;;;;5093841;28;20054;-74
2022/01/25 03:50:40;;;;;;;56.15;32.42;;;4.80;99.90;;;;;;5093697;28;20048;-74
2022/01/25 03:53:07;;;;;;;53.28;32.50;;;4.70;99.90;;;;;;5093828;28;20048;-74
2022/01/25 03:55:33;;;;;;;54.33;32.17;;;4.80;99.90;;;;;;5094390;28;20541;-74
2022/01/25 03:57:58;;;;;;;57.55;31.40;;;4.70;99.90;;;;;;5094028;28;20028;-74
2022/01/25 04:00:24;;;;;;;50.70;29.90;;;4.80;99.90;;;;;;5077602;28;20092;-74
2022/01/25 04:03:02;;;;;;;53.45;31.88;;;4.80;99.90;;;;;;5077566;28;20396;-74
2022/01/25 04:05:38;;;;;;;51.67;29.50;;;4.70;99.90;;;;;;5093844;28;20082;-74
2022/01/25 04:08:04;;;;;;;52.28;31.02;;;4.70;99.90;;;;;;5076249;28;20036;-74
2022/01/25 04:10:30;;;;;;;52.47;30.58;;;4.80;99.90;;;;;;5077669;28;20036;-74
2022/01/25 04:12:56;;;;;;;58.60;31.58;;;4.70;99.90;;;;;;5093685;28;20028;-74
2022/01/25 04:15:21;;;;;;;55.88;30.77;;;4.80;99.90;;;;;;5093577;28;20047;-74
2022/01/25 04:17:52;;;;;;;54.33;30.63;;;4.80;99.90;;;;;;5077203;28;20028;-74
2022/01/25 04:20:29;;;;;;;50.70;29.98;;;4.70;99.90;;;;;;5094952;28;20043;-74
2022/01/25 04:25:38;;;;;;;54.17;32.45;;;4.80;99.90;;;;;;5092542;28;20047;-74
2022/01/25 04:28:04;;;;;;;51.42;29.63;;;4.70;99.90;;;;;;5093202;28;20115;-74
2022/01/25 04:30:30;;;;;;;55.20;33.00;;;4.60;99.90;;;;;;5094391;28;20519;-74
2022/01/25 04:33:01;;;;;;;55.90;32.35;;;4.60;99.90;;;;;;5075770;28;20119;-74
2022/01/25 05:02:15;;;;;;;55.22;30.25;;;4.80;99.90;;;;;;5082811;28;20051;-74
2022/01/25 05:04:47;;;;;;;55.80;30.38;;;4.80;99.90;;;;;;5093664;28;20035;-74
2022/01/25 05:07:42;;;;;;;51.83;29.15;;;4.70;99.90;;;;;;5091504;28;20523;-74
2022/01/25 05:10:01;;;;;;;49.10;27.75;;;4.80;99.90;;;;;;5093348;28;20047;-74
2022/01/25 05:12:44;;;;;;;49.35;29.40;;;4.80;99.90;;;;;;5074752;28;20540;-74
2022/01/25 05:15:27;;;;;;;51.75;29.77;;;4.80;99.90;;;;;;5076413;28;20039;-74
2022/01/25 05:18:09;;;;;;;50.92;29.23;;;4.80;99.90;;;;;;5091953;28;20442;-74
2022/01/25 05:23:18;;;;;;;50.65;29.35;;;4.60;99.90;;;;;;5108389;28;20407;-74
2022/01/25 05:25:44;;;;;;;50.60;29.70;;;4.60;99.90;;;;;;5092302;28;20132;-74
2022/01/25 05:28:09;;;;;;;53.20;29.92;;;4.50;99.90;;;;;;5091510;28;20482;-74
2022/01/25 05:30:35;;;;;;;52.90;31.05;;;4.50;99.90;;;;;;5091885;28;20036;-74
2022/01/25 05:33:01;;;;;;;56.92;30.52;;;4.50;99.90;;;;;;5075987;28;20541;-74
2022/01/25 05:35:26;;;;;;;58.25;30.92;;;4.70;99.90;;;;;;5075122;28;20042;-74
2022/01/25 05:37:52;;;;;;;53.75;30.08;;;4.60;99.90;;;;;;5072702;28;20036;-74
2022/01/25 05:40:28;;;;;;;53.75;30.20;;;4.50;99.90;;;;;;5076187;28;20086;-74
2022/01/25 05:48:11;;;;;;;49.88;29.02;;;4.40;99.90;;;;;;5089045;28;20052;-74
2022/01/25 05:50:37;;;;;;;51.30;29.25;;;4.40;99.90;;;;;;5092264;28;20493;-74
2022/01/25 05:53:03;;;;;;;53.92;31.23;;;4.40;99.90;;;;;;5091275;28;20040;-74
2022/01/25 05:55:28;;;;;;;52.53;29.73;;;4.50;99.90;;;;;;5091703;28;20040;-74
2022/01/25 05:57:54;;;;;;;51.65;30.15;;;4.50;99.90;;;;;;5075269;28;20093;-74
2022/01/25 06:00:20;;;;;;;53.58;29.73;;;4.40;99.90;;;;;;5069688;28;20032;-74
2022/01/25 06:02:46;;;;;;;50.58;30.65;;;4.40;99.90;;;;;;5072907;28;20036;-74
2022/01/25 06:05:11;;;;;;;52.95;30.90;;;4.60;99.90;;;;;;5077855;28;20040;-74
2022/01/25 06:07:37;;;;;;;51.70;29.60;;;4.60;99.90;;;;;;5074928;28;20488;-74
2022/01/25 06:10:03;;;;;;;51.15;29.52;;;4.70;99.90;;;;;;5074869;28;20039;-74
2022/01/25 06:12:29;;;;;;;54.90;29.38;;;4.60;99.90;;;;;;5075557;28;20036;-74
2022/01/25 06:14:55;;;;;;;49.88;28.25;;;4.60;99.90;;;;;;5091859;28;20508;-74
2022/01/25 06:17:20;;;;;;;58.25;30.40;;;4.60;99.90;;;;;;5092523;28;20036;-74
2022/01/25 06:19:46;;;;;;;49.40;29.67;;;4.50;99.90;;;;;;5091558;28;20043;-74
2022/01/25 06:22:12;;;;;;;53.92;30.00;;;4.50;99.90;;;;;;5092269;28;20130;-74
2022/01/25 06:24:37;;;;;;;50.85;29.08;;;4.50;99.90;;;;;;5074902;28;20408;-74
2022/01/25 06:27:03;;;;;;;50.03;29.05;;;4.50;99.90;;;;;;5074853;28;20040;-74
2022/01/25 06:29:29;;;;;;;54.28;30.23;;;4.40;99.90;;;;;;5092493;28;20036;-74
2022/01/25 06:31:55;;;;;;;48.92;27.98;;;4.50;99.90;;;;;;5091318;28;20032;-74
2022/01/25 06:34:20;;;;;;;51.33;30.27;;;4.60;99.90;;;;;;5092302;28;20040;-74
2022/01/25 06:36:48;;;;;;;51.55;29.92;;;4.60;99.90;;;;;;5091758;28;20028;-74
2022/01/25 06:39:15;;;;;;;57.80;32.30;;;4.50;99.90;;;;;;5090620;28;20047;-74
2022/01/25 06:41:41;;;;;;;51.83;29.67;;;4.40;99.90;;;;;;5091925;28;20036;-74
2022/01/25 06:44:07;;;;;;;51.58;30.33;;;4.50;99.90;;;;;;5074479;28;20042;-74
2022/01/25 06:46:32;;;;;;;51.00;28.02;;;4.40;99.90;;;;;;5075313;28;20047;-74
2022/01/25 06:48:58;;;;;;;54.78;31.30;;;4.50;99.90;;;;;;5074128;28;20114;-74
2022/01/25 06:51:24;;;;;;;51.53;28.92;;;4.40;99.90;;;;;;5074600;28;20083;-74
2022/01/25 06:53:49;;;;;;;52.85;29.77;;;4.50;99.90;;;;;;5092122;28;20035;-74
2022/01/25 06:56:15;;;;;;;47.38;28.08;;;4.60;99.90;;;;;;5078642;28;20032;-74
2022/01/25 06:58:41;;;;;;;50.42;29.00;;;4.60;99.90;;;;;;5080891;28;20097;-74
2022/01/25 07:01:08;;;;;;;52.45;29.58;;;4.50;99.90;;;;;;5081944;28;20036;-74
2022/01/25 07:03:33;;;;;;;50.50;29.42;;;4.50;99.90;;;;;;5098059;28;20511;-74
2022/01/25 07:05:59;;;;;;;49.38;29.02;;;4.40;99.90;;;;;;5098616;28;20048;-74
2022/01/25 07:08:24;;;;;;;50.70;28.67;;;4.40;99.90;;;;;;5078846;28;20503;-74
2022/01/25 07:10:50;;;;;;;50.95;28.67;;;4.40;99.90;;;;;;5078779;28;20553;-74
2022/01/25 07:13:16;;;;;;;50.38;29.02;;;4.50;99.90;;;;;;5080268;28;20044;-74
2022/01/25 07:15:41;;;;;;;53.50;29.65;;;4.50;99.90;;;;;;5098538;28;20063;-74
2022/01/25 07:18:07;;;;;;;55.03;30.33;;;4.50;99.90;;;;;;5096874;28;20317;-74
2022/01/25 07:20:32;;;;;;;53.50;28.75;;;4.50;99.90;;;;;;5097800;28;20066;-74
2022/01/25 07:22:58;;;;;;;58.05;30.98;;;4.40;99.90;;;;;;5098567;28;20093;-74
2022/01/25 07:25:25;;;;;;;57.13;30.00;;;4.40;99.90;;;;;;5098084;28;20520;-74
2022/01/25 07:27:52;;;;;;;54.97;30.60;;;4.40;99.90;;;;;;5098772;28;20396;-74
2022/01/25 07:30:17;;;;;;;51.10;30.80;;;4.40;99.90;;;;;;5094253;28;20040;-74
2022/01/25 07:32:43;;;;;;;53.13;29.58;;;4.50;99.90;;;;;;5098381;28;20032;-74
2022/01/25 07:35:09;;;;;;;52.92;29.63;;;4.50;99.90;;;;;;5096220;28;20032;-74
2022/01/25 07:37:35;;;;;;;52.90;29.60;;;4.60;99.90;;;;;;5096625;28;20036;-74
2022/01/25 07:40:00;;;;;;;49.80;29.10;;;4.70;99.90;;;;;;5079820;28;20109;-74
2022/01/25 07:42:28;;;;;;;56.45;30.45;;;4.60;99.90;;;;;;5096020;28;20049;-74
2022/01/25 07:44:55;;;;;;;53.85;29.45;;;4.50;99.90;;;;;;5096233;28;20123;-74
2022/01/25 07:47:21;;;;;;;52.47;29.20;;;4.40;99.90;;;;;;5080711;28;20097;-74
2022/01/25 07:49:46;;;;;;;52.15;29.00;;;4.50;99.90;;;;;;5095840;28;20060;-74
2022/01/25 07:52:13;;;;;;;50.92;29.77;;;4.60;99.90;;;;;;5097613;28;20389;-74
2022/01/25 07:54:39;;;;;;;53.78;28.40;;;4.40;99.90;;;;;;5094549;28;20046;-74
2022/01/25 07:57:05;;;;;;;53.45;29.58;;;4.50;99.90;;;;;;5093803;28;20035;-74
2022/01/25 07:59:30;;;;;;;49.33;28.10;;;4.50;99.90;;;;;;5077457;28;20044;-74
2022/01/25 08:01:56;;;;;;;49.72;29.85;;;4.40;99.90;;;;;;5079063;28;20062;-74
2022/01/25 08:04:21;;;;;;;51.97;29.98;;;4.40;99.90;;;;;;5078008;28;20039;-74
2022/01/25 08:06:48;;;;;;;53.92;29.63;;;4.50;99.90;;;;;;5095068;28;20046;-74
2022/01/25 08:09:13;;;;;;;56.33;32.00;;;4.50;99.90;;;;;;5092921;28;20374;-74
2022/01/25 08:11:39;;;;;;;55.03;30.00;;;4.50;99.90;;;;;;5093526;28;20036;-74
2022/01/25 08:14:19;;;;;;;52.80;29.00;;;4.60;99.90;;;;;;5087979;28;20036;-74
2022/01/25 08:16:49;;;;;;;54.08;29.83;;;4.50;99.90;;;;;;5093157;28;20507;-74
2022/01/25 08:19:16;;;;;;;54.17;29.80;;;4.60;99.90;;;;;;5075064;28;20067;-74
2022/01/25 08:21:42;;;;;;;50.65;28.17;;;4.60;99.90;;;;;;5093302;28;20043;-74
2022/01/25 08:24:11;;;;;;;51.20;29.42;;;4.70;99.90;;;;;;5076717;28;20503;-74
2022/01/25 08:26:37;;;;;;;53.42;29.35;;;4.80;99.90;;;;;;5092756;28;20043;-74
2022/01/25 08:29:05;;;;;;;51.53;27.88;;;4.80;99.90;;;;;;5075553;28;20043;-74
2022/01/25 08:31:31;;;;;;;53.97;28.77;;;4.80;99.90;;;;;;5076454;28;20069;-74
2022/01/25 08:33:58;;;;;;;52.40;29.73;;;4.80;99.90;;;;;;5091386;28;20032;-73
2022/01/25 08:36:24;;;;;;;50.97;28.45;;;4.70;99.90;;;;;;5072005;28;20111;-73
2022/01/25 08:38:50;;;;;;;49.00;27.70;;;4.70;99.90;;;;;;5088747;28;20042;-78
2022/01/25 08:41:17;;;;;;;50.00;27.30;;;4.70;99.90;;;;;;5091824;28;20469;-83
2022/01/25 08:43:42;;;;;;;47.25;27.25;;;4.70;99.90;;;;;;5073184;28;20367;-74
2022/01/25 08:46:08;;;;;;;52.85;29.17;;;4.80;99.90;;;;;;5072132;28;20048;-74
2022/01/25 08:48:34;;;;;;;54.75;30.55;;;4.80;99.90;;;;;;5089569;28;20047;-74
2022/01/25 08:51:01;;;;;;;56.88;30.98;;;4.80;99.90;;;;;;5092723;28;20097;-74
2022/01/25 08:53:26;;;;;;;54.15;30.15;;;4.80;99.90;;;;;;5091813;28;20107;-74
2022/01/25 08:55:52;;;;;;;53.08;29.35;;;4.80;99.90;;;;;;5076356;28;20173;-74
2022/01/25 08:58:18;;;;;;;53.38;29.38;;;4.80;99.90;;;;;;5078903;28;20396;-74
2022/01/25 09:00:44;;;;;;;58.13;30.38;;;4.90;99.90;;;;;;5073835;28;20043;-74
2022/01/25 09:03:10;;;;;;;53.85;30.08;;;4.80;99.90;;;;;;5074058;28;20186;-74
2022/01/25 09:05:37;;;;;;;56.17;30.20;;;4.80;99.90;;;;;;5091395;28;20044;-74
2022/01/25 09:08:03;;;;;;;53.40;29.02;;;4.70;99.90;;;;;;5076013;28;20079;-74
2022/01/25 09:10:29;;;;;;;57.60;28.65;;;4.70;99.90;;;;;;5091830;28;20400;-74
2022/01/25 09:12:55;;;;;;;55.47;29.98;;;4.70;99.90;;;;;;5092831;28;20489;-74
2022/01/25 09:15:21;;;;;;;52.45;30.20;;;4.70;99.90;;;;;;5074834;28;20480;-74
2022/01/25 09:17:47;;;;;;;52.63;28.60;;;4.80;99.90;;;;;;5092552;28;20040;-74
2022/01/25 09:20:13;;;;;;;51.03;29.17;;;4.80;99.90;;;;;;5091678;28;20446;-74
2022/01/25 09:22:39;;;;;;;53.85;29.33;;;4.80;99.90;;;;;;5092285;28;20079;-74
2022/01/25 09:25:06;;;;;;;55.55;29.05;;;4.80;99.90;;;;;;5073233;28;20523;-74
2022/01/25 09:27:31;;;;;;;53.28;28.95;;;4.90;99.90;;;;;;5074969;28;20052;-74
2022/01/25 09:29:57;;;;;;;49.97;28.38;;;4.90;99.90;;;;;;5091075;28;20051;-74
2022/01/25 09:32:22;;;;;;;51.67;28.40;;;5.00;99.90;;;;;;5091362;28;20040;-74
2022/01/25 09:34:48;;;;;;;52.97;29.35;;;5.00;99.90;;;;;;5073818;28;20039;-74
2022/01/25 09:37:14;;;;;;;57.50;28.90;;;4.80;99.90;;;;;;5075077;28;20040;-74
2022/01/25 09:39:39;;;;;;;51.20;27.33;;;4.80;99.90;;;;;;5074452;28;20523;-74
2022/01/25 09:42:09;;;;;;;53.72;28.50;;;4.80;99.90;;;;;;5092583;28;20151;-74
2022/01/25 09:44:39;;;;;;;54.60;29.83;;;4.90;99.90;;;;;;5073017;28;20044;-74
2022/01/25 09:47:06;;;;;;;54.38;28.05;;;4.90;99.90;;;;;;5091107;28;20068;-74
2022/01/25 09:49:33;;;;;;;54.33;28.85;;;5.00;99.90;;;;;;5090655;28;20405;-74
2022/01/25 09:52:01;;;;;;;53.17;27.77;;;5.00;99.90;;;;;;5091683;28;20043;-74
2022/01/25 09:54:27;;;;;;;56.92;31.33;;;4.80;99.90;;;;;;5091569;28;20043;-74
2022/01/25 09:56:53;;;;;;;56.55;30.00;;;4.80;99.90;;;;;;5071842;28;20040;-74
2022/01/25 09:59:18;;;;;;;56.45;28.73;;;4.70;99.90;;;;;;5085368;28;20123;-74
2022/01/25 10:01:45;;;;;;;56.95;30.00;;;4.60;99.90;;;;;;5090874;28;20071;-74
2022/01/25 10:04:33;;;;;;;56.45;29.27;;;4.60;99.90;;;;;;5072009;28;20039;-74
2022/01/25 10:06:58;;;;;;;56.10;29.52;;;4.60;99.90;;;;;;5089337;28;20511;-74
2022/01/25 10:09:26;;;;;;;53.95;29.73;;;4.70;99.90;;;;;;5074675;28;20052;-74
2022/01/25 10:11:51;;;;;;;56.78;29.90;;;4.70;99.90;;;;;;5073718;28;20120;-74
2022/01/25 10:14:17;;;;;;;58.67;31.15;;;4.80;99.90;;;;;;5074615;28;20115;-74
2022/01/25 10:16:45;;;;;;;55.75;28.02;;;4.80;99.90;;;;;;5089701;28;20040;-74
2022/01/25 10:19:12;;;;;;;55.05;28.83;;;4.90;99.90;;;;;;5070024;28;20067;-74
2022/01/25 10:21:50;;;;;;;54.70;29.55;;;5.00;99.90;;;;;;5073834;28;20063;-74
2022/01/25 10:24:24;;;;;;;54.50;28.80;;;5.00;99.90;;;;;;5086882;28;20408;-74
2022/01/25 10:26:52;;;;;;;58.10;28.33;;;5.00;99.90;;;;;;5089325;28;20035;-74
2022/01/25 10:29:21;;;;;;;56.47;29.52;;;4.80;99.90;;;;;;5080064;28;20484;-74
2022/01/25 10:31:49;;;;;;;59.15;30.63;;;4.80;99.90;;;;;;5073712;28;20039;-74
2022/01/25 10:34:23;;;;;;;58.85;31.95;;;4.90;99.90;;;;;;5071202;28;20036;-74
2022/01/25 10:36:49;;;;;;;60.05;31.92;;;4.80;99.90;;;;;;5090973;28;20048;-74
2022/01/25 10:39:26;;;;;;;52.88;27.63;;;4.90;99.90;;;;;;5078625;28;20520;-74
2022/01/25 10:42:07;;;;;;;58.10;30.80;;;4.80;99.90;;;;;;5082861;28;20400;-74
2022/01/25 10:44:53;;;;;;;56.30;29.88;;;4.90;99.90;;;;;;5074094;28;20065;-74
2022/01/25 10:47:37;;;;;;;60.42;30.20;;;5.00;99.90;;;;;;5072398;28;20078;-74
2022/01/25 10:50:18;;;;;;;59.45;28.80;;;4.90;99.90;;;;;;5063116;28;20150;-74
2022/01/25 10:52:46;;;;;;;52.43;27.87;;;4.90;99.90;;;;;;5091066;28;20469;-74
2022/01/25 10:55:13;;;;;;;57.53;31.30;;;4.80;99.90;;;;;;5086397;28;20308;-74
2022/01/25 10:57:39;;;;;;;59.78;31.08;;;4.80;99.90;;;;;;5058191;28;20551;-74
2022/01/25 11:00:11;;;;;;;60.95;30.98;;;4.70;99.90;;;;;;5072761;28;20039;-74
2022/01/25 11:02:57;;;;;;;63.17;31.98;;;4.70;99.90;;;;;;5089609;28;20515;-74
2022/01/25 11:05:22;;;;;;;55.20;29.48;;;4.60;99.90;;;;;;5090686;28;20517;-74
2022/01/25 11:07:48;;;;;;;56.20;29.63;;;4.70;99.90;;;;;;5090066;28;20082;-74
2022/01/25 11:10:16;;;;;;;55.25;26.65;;;4.90;99.90;;;;;;5090807;28;20504;-74
2022/01/25 11:12:49;;;;;;;54.67;29.17;;;4.80;99.90;;;;;;5088916;28;20082;-74
2022/01/25 11:15:15;;;;;;;57.83;30.15;;;4.80;99.90;;;;;;5072111;28;20039;-74
2022/01/25 11:17:40;;;;;;;57.58;29.73;;;4.70;99.90;;;;;;5077280;28;20040;-74
2022/01/25 11:20:07;;;;;;;60.72;32.15;;;4.80;99.90;;;;;;5067825;28;20043;-74
2022/01/25 11:22:33;;;;;;;57.38;28.92;;;4.80;99.90;;;;;;5091265;28;20052;-74
2022/01/25 11:25:01;;;;;;;54.75;27.73;;;4.80;99.90;;;;;;5090593;28;20051;-74
2022/01/25 11:27:29;;;;;;;55.47;29.67;;;4.90;99.90;;;;;;5090694;28;20047;-74
2022/01/25 11:29:59;;;;;;;58.45;30.48;;;5.00;99.90;;;;;;5090806;28;20032;-74
2022/01/25 11:32:28;;;;;;;58.00;29.33;;;4.80;99.90;;;;;;5090555;28;20123;-74
2022/01/25 11:34:55;;;;;;;57.97;29.95;;;4.70;99.90;;;;;;5073585;28;20173;-74
2022/01/25 11:37:37;;;;;;;58.78;30.52;;;4.80;99.90;;;;;;5090739;28;20404;-74
2022/01/25 11:40:04;;;;;;;59.13;29.48;;;4.80;99.90;;;;;;5072197;28;20626;-74
2022/01/25 11:42:36;;;;;;;60.10;30.92;;;4.70;99.90;;;;;;5088371;28;20044;-74
2022/01/25 11:45:02;;;;;;;60.55;29.58;;;4.70;99.90;;;;;;5094235;28;20047;-74
2022/01/25 11:47:34;;;;;;;53.80;28.17;;;4.70;99.90;;;;;;5074048;28;20051;-74
2022/01/25 11:50:12;;;;;;;59.53;30.05;;;4.90;99.90;;;;;;5073960;28;20071;-74
2022/01/25 11:52:51;;;;;;;58.40;30.88;;;4.90;99.90;;;;;;5073761;28;20048;-74
2022/01/25 11:55:16;;;;;;;58.30;29.50;;;4.90;99.90;;;;;;5057433;28;20115;-74
2022/01/25 11:58:10;;;;;;;52.45;27.55;;;4.90;99.90;;;;;;5081488;28;20127;-74
2022/01/25 12:00:45;;;;;;;56.88;29.52;;;4.90;99.90;;;;;;5076581;28;20508;-74
2022/01/25 12:03:28;;;;;;;54.30;29.23;;;4.90;99.90;;;;;;5090647;28;20059;-74
2022/01/25 12:05:58;;;;;;;52.58;26.13;;;5.00;99.90;;;;;;5075377;28;20101;-74
2022/01/25 12:08:50;;;;;;;58.40;29.13;;;5.00;99.90;;;;;;5075929;28;20073;-74
2022/01/25 12:11:52;;;;;;;54.53;26.35;;;5.10;99.90;;;;;;5075986;28;20036;-74
2022/01/25 12:14:23;;;;;;;57.97;26.75;;;5.10;99.90;;;;;;5091270;28;20115;-74
2022/01/25 12:17:04;;;;;;;55.88;27.23;;;5.00;99.90;;;;;;5073687;28;20514;-74
2022/01/25 12:19:48;;;;;;;52.97;27.95;;;5.10;99.90;;;;;;5064280;28;20048;-74
2022/01/25 12:22:38;;;;;;;53.05;28.05;;;4.90;99.90;;;;;;5092502;28;20047;-74
2022/01/25 12:28:07;;;;;;;53.67;27.70;;;4.80;99.90;;;;;;5092740;28;20557;-74
2022/01/25 12:30:40;;;;;;;58.80;30.35;;;4.80;99.90;;;;;;5092508;28;20080;-74
2022/01/25 12:33:10;;;;;;;52.25;27.60;;;4.70;99.90;;;;;;5076007;28;20071;-74
2022/01/25 12:35:51;;;;;;;55.65;28.48;;;4.70;99.90;;;;;;5093749;28;20058;-74
2022/01/25 12:38:37;;;;;;;52.25;25.60;;;4.80;99.90;;;;;;5092793;28;20441;-74
2022/01/25 12:41:09;;;;;;;52.05;26.60;;;5.00;99.90;;;;;;5082181;28;20044;-74
2022/01/25 12:43:40;;;;;;;50.30;25.27;;;5.10;99.90;;;;;;5085807;28;20156;-74
2022/01/25 12:46:34;;;;;;;58.50;28.38;;;5.10;99.90;;;;;;5092317;28;20294;-74
2022/01/25 12:49:00;;;;;;;58.45;27.20;;;5.00;99.90;;;;;;5075593;28;20064;-74
2022/01/25 12:51:32;;;;;;;59.28;29.17;;;5.00;99.90;;;;;;5074341;28;20051;-74
2022/01/25 12:53:59;;;;;;;;;;;4.80;99.90;;;;;;5092139;28;20052;-73
2022/01/25 12:56:34;;;;;;;61.25;29.45;;;4.90;99.90;;;;;;5092234;28;19961;-74
2022/01/25 12:59:10;;;;;;;60.65;29.60;;;4.90;99.90;;;;;;5093231;28;20031;-73
2022/01/25 13:01:39;;;;;;;59.22;29.30;;;4.90;99.90;;;;;;5093637;28;20040;-73
2022/01/25 13:04:07;;;;;;;57.63;27.85;;;5.00;99.90;;;;;;5090780;28;20038;-73
2022/01/25 13:06:36;;;;;;;54.05;27.17;;;5.10;99.90;;;;;;5075847;28;20040;-74
2022/01/25 13:09:13;;;;;;;57.67;30.60;;;5.10;99.90;;;;;;5093400;28;20036;-73
2022/01/25 13:11:48;;;;;;;53.67;27.98;;;5.00;99.90;;;;;;5076598;28;20461;-73
2022/01/25 13:14:33;;;;;;;59.75;29.90;;;5.00;99.90;;;;;;5093290;28;20032;-73
2022/01/25 13:17:02;;;;;;;54.28;26.75;;;4.90;99.90;;;;;;5093423;28;20036;-73
2022/01/25 13:19:37;;;;;;;58.85;29.08;;;5.10;99.90;;;;;;5076195;28;20036;-73
2022/01/25 13:22:12;;;;;;;57.85;26.48;;;5.10;99.90;;;;;;5087921;28;20040;-73
2022/01/25 13:24:47;;;;;;;54.03;27.45;;;5.10;99.90;;;;;;5056455;28;20036;-73
2022/01/25 13:27:17;;;;;;;58.55;26.73;;;5.10;99.90;;;;;;5073185;28;20037;-73
2022/01/25 13:32:46;;;;;;;57.38;26.80;;;5.10;99.90;;;;;;5091904;28;20056;-74
2022/01/25 13:37:59;;;;;;;58.20;27.33;;;4.80;99.90;;;;;;5091787;28;20055;-73
2022/01/25 13:40:33;;;;;;;53.63;27.90;;;4.80;99.90;;;;;;5076058;28;20048;-73
2022/01/25 13:43:19;;;;;;;59.63;28.13;;;5.00;99.90;;;;;;5092847;28;20044;-73
2022/01/25 13:45:50;;;;;;;56.83;28.00;;;4.90;99.90;;;;;;5093017;28;20109;-73
2022/01/25 13:48:15;;;;;;;54.13;28.57;;;4.80;99.90;;;;;;5074175;28;20071;-73
2022/01/25 13:50:42;;;;;;;57.17;27.75;;;4.80;99.90;;;;;;5092339;28;20079;-73
2022/01/25 13:53:09;;;;;;;62.92;30.95;;;4.80;99.90;;;;;;5091820;28;20048;-73
2022/01/25 13:55:36;;;;;;;56.50;28.15;;;4.80;99.90;;;;;;5089870;28;20040;-73
2022/01/25 13:58:02;;;;;;;56.42;26.92;;;4.90;99.90;;;;;;5073703;28;20040;-72
2022/01/25 14:00:28;;;;;;;52.78;27.17;;;5.00;99.90;;;;;;5074967;28;20492;-73
2022/01/25 14:02:56;;;;;;;56.88;27.65;;;5.00;99.90;;;;;;5091654;28;20046;-73
2022/01/25 14:05:22;;;;;;;52.70;26.98;;;5.00;99.90;;;;;;5089441;28;20047;-73
2022/01/25 14:07:50;;;;;;;58.70;28.35;;;5.10;99.90;;;;;;5090849;28;20036;-73
2022/01/25 14:10:22;;;;;;;60.25;28.33;;;5.00;99.90;;;;;;5092071;28;20036;-73
2022/01/25 14:23:48;;;;;;;55.45;26.77;;;4.90;99.90;;;;;;5090579;28;20052;-72
2022/01/25 14:26:14;;;;;;;56.47;27.40;;;4.80;99.90;;;;;;5075149;28;20071;-72
2022/01/25 14:28:43;;;;;;;55.95;26.35;;;4.70;99.90;;;;;;5074102;28;20039;-72
2022/01/25 14:31:17;;;;;;;60.38;29.15;;;4.80;99.90;;;;;;5074466;28;20518;-73
2022/01/25 14:34:11;;;;;;;60.53;29.67;;;4.80;99.90;;;;;;5073594;28;20392;-72
2022/01/25 14:36:39;;;;;;;57.30;29.75;;;4.70;99.90;;;;;;5087208;28;20488;-72
2022/01/25 14:39:06;;;;;;;64.18;29.63;;;4.60;99.90;;;;;;5089566;28;20071;-72
2022/01/25 14:41:34;;;;;;;66.15;30.67;;;4.60;99.90;;;;;;5074442;28;20051;-72
2022/01/25 14:44:05;;;;;;;57.67;29.20;;;4.70;99.90;;;;;;5091037;28;20093;-72
2022/01/25 14:46:37;;;;;;;61.33;30.27;;;4.70;99.90;;;;;;5091680;28;20140;-72
2022/01/25 14:49:16;;;;;;;56.38;28.00;;;4.70;99.90;;;;;;5072831;28;20496;-72
2022/01/25 14:51:51;;;;;;;62.28;29.48;;;4.70;99.90;;;;;;5091908;28;20489;-73